Startpagina
METAR-TAF:

METAR-TAF

Vliegvelden :

Nairobi, Kenia

Luchthaven Jomo Kenyatta Internationaal

breedte: 01-19S, lengte: 036-55E, hoogte: 1624 m

Actueel weer

Dit bericht is 50 minuten geleden gemaakt, om 05:30 UTC
Wind 3 kt uit het noorden
Temperatuur 20°C
Vochtigheid 64%
Druk 1021 hPa
Zicht 10 km of meer
Weinig wolken op 2500 ft

METAR: HKJK 180530Z 36003KT 9999 FEW025 20/13 Q1021

Tijdstip: 09:20 (06:20 UTC)

Verwachting

Dit bericht is 1 uur en het 20 minuten geleden gemaakt, om 05:00 UTC
Verwachting geldig van 18 om 06 UTC tot 19 om 12 UTC
Wind 10 kt uit het noordoosten
Zicht 10 km of meer
Verspreide wolken op 2600 ft
Wijzigt naar
van 18 om 19 UTC tot 18 om 23 UTC
Wind 5 kt uit het noorden
Zicht 10 km of meer
geen wolken onder 1500 m en geen cumulonimbus
Wijzigt naar
van 19 om 08 UTC tot 19 om 11 UTC
Wind 10 kt uit het oostnoordoosten
Zicht 10 km of meer
Verspreide wolken op 2500 ft

TAF: HKJK 180500Z 1806/1912 05010KT 9999 SCT026 BECMG 1819/1823 36005KT CAVOK BECMG 1908/1911 06010KT 9999 SCT025

Waarnemingen en weersverwachtingen van meer dan 4000 vliegvelden (METAR en TAF).

De beschikbare stations zijn de gele en rode punten op de kaart.

Ga met uw muis naar het station om de naam te zien.

Klik dan om waarnemingen en weersverwachtingen te zien.

kaart wijzigen: klik op de groene knoppen met een zwart kruis om in te zoomen, op de groene knop met een streepje om uit te zoomen of op de groene pijlen voor aangrenzende kaarten.


METAR-TAF: